Latest Coastal Weather Observations for Gove Airport

IDD60701

Issued at 5:11 am CST Tuesday 26 May 2015 (issued every 10 minutes, with the page automatically refreshed every 10 minutes)

About coastal observations | Map of coastal stations | Coastal observations for NT | Marine services | Other Formats
Station Details ID: 014508 Name: GOVE AIRPORT Lat: -12.27 Lon: 136.82 Height: 51.6 m
Data from the previous 72 hours. | See also: Recent months at Gove Airport
Date/Time
CST
Temp

°C
Wind Pressure Rain
since 9am
mm
Weather Cloud Vis
km
Sea
Height
m
Swell
Dir
 
Speed
knots
Gust
knots
hPa Trend Height
m
Period
s
Dir
26/05:00am 26.7 SE 9 13 1015.0 - 0.0 - Partly cloudy 10 - - - -
26/04:30am 26.4 SE 9 14 1015.0 - 0.0 - Partly cloudy 10 - - - -
26/04:00am 26.2 SE 9 13 1014.6 - 0.0 - - 10 - - - -
26/03:30am 26.1 SE 10 15 1014.8 - 0.0 - Partly cloudy 10 - - - -
26/03:00am 26.1 SE 9 13 1014.7 - 0.0 - Mostly clear 10 - - - -
26/02:30am 26.3 SE 10 13 1015.4 - 0.0 - Partly cloudy 10 - - - -
26/02:00am 26.0 SSE 9 15 1015.4 - 0.0 - Partly cloudy 10 - - - -
26/01:30am 26.2 SSE 10 14 1015.8 - 0.0 - Partly cloudy 10 - - - -
26/01:00am 26.4 SSE 11 17 1016.0 - 0.0 - Partly cloudy 10 - - - -
26/12:30am 26.5 SSE 10 14 1016.0 - 0.0 - Cloudy 10 - - - -
26/12:00am 26.5 SSE 8 11 1015.9 - 0.0 - Cloudy 10 - - - -
 
Date/Time
CST
Temp

°C
Wind Pressure Rain
since 9am
mm
Weather Cloud Vis
km
Sea
Height
m
Swell
Dir
 
Speed
knots
Gust
knots
hPa Trend Height
m
Period
s
Dir
25/11:30pm 26.7 SSE 9 14 1016.5 - 0.0 - Cloudy 10 - - - -
25/11:00pm 26.6 SSE 8 12 1016.7 - 0.0 - Partly cloudy 10 - - - -
25/10:30pm 26.6 SSE 8 11 1016.9 - 0.0 - Partly cloudy 10 - - - -
25/10:00pm 26.5 SE 9 13 1017.0 - 0.0 - Mostly clear 10 - - - -
25/09:30pm 26.6 SE 9 12 1016.9 - 0.0 - Mostly clear 10 - - - -
25/09:00pm 26.8 SE 10 15 1016.4 R 0.0 Fine Mostly cloudy 25 - - - -
25/08:30pm 26.8 SE 10 14 1016.4 - 0.0 - Mostly clear 10 - - - -
25/08:00pm 26.9 SE 10 15 1016.1 - 0.0 - Partly cloudy 10 - - - -
25/07:30pm 26.9 SE 9 13 1015.7 - 0.0 - Mostly clear 10 - - - -
25/07:00pm 26.8 SE 8 11 1015.3 - 0.0 - Mostly clear 10 - - - -
25/06:30pm 26.9 SE 9 11 1015.1 - 0.0 - Mostly clear 10 - - - -
25/06:00pm 27.1 SE 10 16 1014.6 R 0.0 Fine Mostly cloudy 25 - - - -
25/05:30pm 27.5 SE 10 15 1014.5 - 0.0 - Mostly clear 10 - - - -
25/05:00pm 28.0 SE 10 15 1014.2 - 0.0 - Partly cloudy 10 - - - -
25/04:30pm 28.5 SE 15 20 1014.0 - 0.0 - Partly cloudy 10 - - - -
25/04:00pm 29.0 ESE 14 21 1013.9 - 0.0 - Partly cloudy 10 - - - -
25/03:30pm 28.9 ESE 16 20 1013.8 - 0.0 - Mostly cloudy 10 - - - -
25/03:00pm 29.0 ESE 16 23 1013.5 R 0.0 Fine Partly cloudy 26 - - - -
25/02:30pm 29.2 ESE 17 21 1014.1 - 0.0 - Mostly clear 10 - - - -
25/02:00pm 30.1 SE 15 21 1014.3 - 0.0 - Partly cloudy 10 - - - -
25/01:30pm 29.3 ESE 15 22 1014.6 - 0.0 - Partly cloudy 10 - - - -
25/01:00pm 28.4 SE 13 19 1015.0 - 0.0 - Partly cloudy 10 - - - -
25/12:30pm 29.3 SE 12 16 1015.4 - 0.0 - Partly cloudy 10 - - - -
25/12:00pm 29.3 SE 12 17 1015.3 - 0.0 - Cloudy 10 - - - -
25/11:30am 29.0 SE 12 19 1016.0 - 0.0 - Partly cloudy 10 - - - -
25/11:00am 28.7 SE 13 18 1016.3 - 0.0 - Partly cloudy 10 - - - -
25/10:30am 28.4 SE 13 19 1016.5 - 0.0 - Partly cloudy 10 - - - -
25/10:00am 28.2 ESE 13 19 1016.8 - 0.0 - Partly cloudy 10 - - - -
25/09:30am 28.1 SE 13 19 1016.9 - 0.0 - Partly cloudy 10 - - - -
25/09:00am 26.8 SE 10 15 1016.6 - 1.2 - Cloudy 10 - - - -
25/08:30am 26.0 SSE 8 10 1016.6 - 1.2 - Partly cloudy 10 - - - -
25/08:00am 25.4 SE 7 9 1016.4 - 1.2 - Partly cloudy 10 - - - -
25/07:30am 24.4 SE 6 7 1016.0 - 1.2 - Partly cloudy 10 - - - -
25/07:00am 23.2 SSE 5 6 1015.6 - 1.2 - - 10 - - - -
25/06:30am 23.3 SE 6 7 1015.5 - 1.2 - - 10 - - - -
25/06:00am 23.1 SE 5 6 1015.0 - 1.2 - - 10 - - - -
25/05:30am 23.0 ESE 5 6 1015.1 - 1.2 - Partly cloudy 10 - - - -
25/05:00am 23.2 ESE 5 6 1015.0 - 1.2 - Partly cloudy 10 - - - -
25/04:30am 22.8 SE 4 4 1015.0 - 1.2 - Partly cloudy 10 - - - -
25/04:00am 23.2 ESE 5 5 1015.0 - 1.2 - Partly cloudy 10 - - - -
25/03:30am 23.4 E 5 6 1015.1 - 1.2 - Partly cloudy 10 - - - -
25/03:00am 24.0 ESE 6 7 1014.9 - 1.2 - - 10 - - - -
25/02:30am 23.7 SE 4 6 1015.5 - 1.2 - Partly cloudy 10 - - - -
25/02:00am 23.7 NNE 4 5 1015.9 - 1.2 - Partly cloudy 10 - - - -
25/01:30am 23.5 SE 5 6 1015.9 - 1.0 - - 10 - - - -
25/01:00am 23.5 ESE 4 5 1016.1 - 1.0 - - 10 - - - -
25/12:30am 23.6 E 4 5 1016.3 - 1.0 - - 10 - - - -
25/12:00am 24.0 SE 5 7 1016.1 - 1.0 - - 10 - - - -
 
Date/Time
CST
Temp

°C
Wind Pressure Rain
since 9am
mm
Weather Cloud Vis
km
Sea
Height
m
Swell
Dir
 
Speed
knots
Gust
knots
hPa Trend Height
m
Period
s
Dir
24/11:30pm 24.2 E 5 6 1016.4 - 1.0 - Partly cloudy 10 - - - -
24/11:00pm 24.0 ESE 5 6 1016.5 - 1.0 - Partly cloudy 10 - - - -
24/10:30pm 23.9 ESE 5 6 1016.3 - 1.0 - Partly cloudy 10 - - - -
24/10:00pm 23.8 E 4 5 1016.3 - 1.0 - Mostly clear 10 - - - -
24/09:30pm 23.8 SE 4 5 1016.3 - 1.0 - Mostly clear 10 - - - -
24/09:00pm 23.8 NNE 4 4 1015.8 F 1.0 Fine Partly cloudy 24 - - - -
24/08:30pm 23.9 SE 4 5 1015.8 - 1.0 - Mostly clear 10 - - - -
24/08:00pm 24.1 CALM 0 3 1015.5 - 1.0 - Mostly clear 10 - - - -
24/07:30pm 24.3 SE 3 4 1015.2 - 1.0 - Mostly clear 10 - - - -
24/07:00pm 24.2 S 4 6 1015.1 - 1.0 - Mostly clear 10 - - - -
24/06:30pm 24.1 S 4 5 1014.9 - 1.0 - Mostly clear 10 - - - -
24/06:00pm 24.2 SE 4 5 1014.5 R 1.0 Recent precip. Mostly cloudy 24 - - - -
24/05:30pm 24.4 ESE 10 14 1014.5 - 0.4 Showers Mostly clear 4 - - - -
24/05:16pm 25.7 ESE 13 18 1014.2 - 0.0 Showers Mostly clear 2 - - - -
24/05:00pm 26.7 SSE 8 12 1014.0 - 0.0 Showers Mostly clear 4 - - - -
24/04:30pm 27.5 SE 10 14 1013.7 - 0.0 - Mostly clear 10 - - - -
24/04:00pm 27.4 SSE 11 15 1013.7 - 0.0 - Mostly clear 10 - - - -
24/03:30pm 27.9 SSE 11 14 1013.6 - 0.0 - Partly cloudy 10 - - - -
24/03:00pm 27.6 SE 13 18 1013.1 R 0.0 Fine Mostly cloudy 24 - - - -
24/02:30pm 28.1 SE 11 16 1013.5 - 0.0 - Partly cloudy 10 - - - -
24/02:00pm 28.0 SSE 13 19 1013.6 - 0.0 - Partly cloudy 10 - - - -
24/01:30pm 28.0 SSE 13 18 1013.9 - 0.0 - Partly cloudy 10 - - - -
24/01:00pm 28.1 SE 13 17 1014.3 - 0.0 - Partly cloudy 10 - - - -
24/12:30pm 28.7 SE 15 18 1014.5 - 0.0 - Partly cloudy 10 - - - -
24/12:00pm 28.0 SSE 13 21 1014.6 F 0.0 Fine Mostly cloudy 24 - - - -
24/11:30am 28.6 SSE 12 17 1015.1 - 0.0 - Mostly clear 10 - - - -
24/11:00am 28.1 SSE 13 18 1015.4 - 0.0 - Mostly clear 10 - - - -
24/10:30am 27.0 SSE 12 18 1015.6 - 0.0 - Mostly clear 10 - - - -
24/10:00am 27.2 SSE 12 16 1015.9 - 0.0 - Mostly clear 10 - - - -
24/09:30am 27.0 SSE 11 17 1016.0 - 0.0 - Mostly clear 10 - - - -
24/09:00am 26.5 SSE 11 16 1015.6 F 0.0 Fine Partly cloudy 25 - - - -
24/08:30am 26.1 SSE 9 12 1015.7 - 0.0 - Mostly clear 10 - - - -
24/08:00am 25.2 SSE 7 10 1015.6 - 0.0 - Mostly clear 10 - - - -
24/07:30am 23.9 S 5 7 1015.4 - 0.0 - Mostly clear 10 - - - -
24/07:00am 22.5 S 6 7 1015.2 - 0.0 - Mostly clear 10 - - - -
24/06:30am 21.8 SSE 5 7 1015.0 - 0.0 - Mostly clear 10 - - - -
24/06:00am 21.6 ESE 5 6 1014.6 R 0.0 Fine Mostly clear 20 - - - -
24/05:30am 21.5 SE 3 4 1014.6 - 0.0 - - 10 - - - -
24/05:00am 22.4 S 3 5 1014.3 - 0.0 - - 10 - - - -
24/04:30am 22.8 S 4 6 1014.0 - 0.0 - - 8 - - - -
24/04:00am 23.3 S 5 7 1014.1 - 0.0 - - 10 - - - -
24/03:30am 23.8 S 6 8 1014.2 - 0.0 - - 10 - - - -
24/03:00am 24.3 S 7 10 1013.9 - 0.0 - Partly cloudy 10 - - - -
24/02:30am 24.7 SSE 7 9 1014.4 - 0.0 - Cloudy 10 - - - -
24/02:00am 24.8 SSE 7 12 1014.6 - 0.0 - Cloudy 10 - - - -
24/01:30am 24.5 SSE 7 10 1014.7 - 0.0 - Cloudy 10 - - - -
24/01:00am 24.1 SSE 6 7 1015.0 - 0.0 - Partly cloudy 10 - - - -
24/12:30am 24.3 S 6 8 1014.9 - 0.0 - Partly cloudy 10 - - - -
24/12:00am 24.4 SSE 7 9 1014.9 - 0.0 - Partly cloudy 10 - - - -
 
Date/Time
CST
Temp

°C
Wind Pressure Rain
since 9am
mm
Weather Cloud Vis
km
Sea
Height
m
Swell
Dir
 
Speed
knots
Gust
knots
hPa Trend Height
m
Period
s
Dir
23/11:30pm 24.7 SSE 6 9 1015.4 - 0.0 - Partly cloudy 10 - - - -
23/11:00pm 25.0 SSE 7 10 1015.5 - 0.0 - Cloudy 10 - - - -
23/10:30pm 25.0 SSE 8 11 1015.6 - 0.0 - Cloudy 10 - - - -
23/10:00pm 25.2 SSE 7 11 1015.7 - 0.0 - Mostly clear 10 - - - -
23/09:30pm 25.1 SSE 9 13 1015.8 - 0.0 - Mostly clear 10 - - - -
23/09:00pm 25.0 SSE 8 11 1015.5 F 0.0 Haze Partly cloudy 17 - - - -
23/08:30pm 25.1 SSE 9 15 1015.7 - 0.0 - Mostly clear 10 - - - -
23/08:00pm 25.3 SSE 9 12 1015.6 - 0.0 - Mostly clear 10 - - - -
23/07:30pm 25.2 SSE 8 11 1015.3 - 0.0 - Mostly clear 10 - - - -
23/07:00pm 25.1 SSE 8 11 1015.0 - 0.0 - Mostly clear 10 - - - -
23/06:30pm 25.0 SSE 9 14 1014.7 - 0.0 - Mostly clear 10 - - - -
23/06:00pm 25.0 SSE 8 13 1014.0 F 0.0 Haze Mostly clear 17 - - - -
23/05:30pm 25.6 SSE 9 14 1014.3 - 0.0 - Mostly clear 10 - - - -
23/05:00pm 26.1 SSE 11 14 1014.2 - 0.0 - Mostly clear 10 - - - -
23/04:30pm 26.2 SSE 11 16 1014.0 - 0.0 - Mostly clear 10 - - - -
23/04:00pm 26.3 SSE 11 16 1014.0 - 0.0 Showers Mostly clear 10 - - - -
23/03:30pm 26.6 SSE 13 17 1014.0 - 0.0 - Partly cloudy 10 - - - -
23/03:00pm 28.1 SSE 12 17 1013.5 F 0.0 Haze Mostly cloudy 16 - - - -
23/02:30pm 27.0 SSE 11 16 1014.2 - 0.0 - Partly cloudy 10 - - - -
23/02:00pm 27.5 SSE 11 16 1014.3 - 0.0 - Partly cloudy 10 - - - -
23/01:30pm 27.8 SSE 14 21 1014.6 - 0.0 - Mostly clear 10 - - - -
23/01:00pm 27.1 SSE 11 19 1014.9 - 0.0 - Partly cloudy 10 - - - -
23/12:30pm 28.8 SSE 12 18 1015.4 - 0.0 - Partly cloudy 10 - - - -
23/12:00pm 28.0 SSE 13 20 1015.5 F 0.0 Haze Partly cloudy 16 - - - -
23/11:30am 28.5 SSE 13 20 1016.1 - 0.0 - Partly cloudy 10 - - - -
23/11:00am 27.9 SSE 13 22 1016.4 - 0.0 - Partly cloudy 10 - - - -
23/10:30am 26.5 SSE 11 18 1016.7 - 0.0 - Partly cloudy 10 - - - -
23/10:00am 26.6 SSE 15 23 1016.8 - 0.0 - Partly cloudy 10 - - - -
23/09:30am 27.1 SSE 13 19 1016.7 - 0.0 - Partly cloudy 10 - - - -
23/09:00am 26.1 SSE 12 17 1016.5 F 0.0 Distant precip. Mostly cloudy 17 - - - -
23/08:30am 26.0 SSE 11 17 1016.5 - 0.0 - Mostly cloudy 10 - - - -
23/08:00am 26.2 SSE 10 15 1016.1 - 0.0 - Partly cloudy 10 - - - -
23/07:30am 25.5 SSE 9 14 1015.9 - 0.0 - Mostly clear 10 - - - -
23/07:00am 25.1 SSE 10 15 1015.6 - 0.0 - Mostly clear 10 - - - -
23/06:30am 25.4 SE 9 13 1015.6 - 0.0 - Partly cloudy 10 - - - -
23/06:00am 25.2 SE 8 11 1015.1 R 0.0 Haze Mostly cloudy 17 - - - -
23/05:30am 24.9 SE 8 12 1015.1 - 0.0 - Partly cloudy 10 - - - -

Other Formats:

Comma delimited format used in spreadsheet applications
http://www.bom.gov.au/fwo/IDD60701/IDD60701.94150.axf

JavaScript Object Notation format (JSON) in row-major order
http://www.bom.gov.au/fwo/IDD60701/IDD60701.94150.json